sensor_id;sensor_type;location;lat;lon;timestamp;P1;durP1;ratioP1;P2;durP2;ratioP2
43835;SDS011;39345;43.964;25.340;2022-12-29T00:02:13;42.63;;;23.25;;
43835;SDS011;39345;43.964;25.340;2022-12-29T00:04:41;45.45;;;22.77;;
43835;SDS011;39345;43.964;25.340;2022-12-29T00:07:08;42.25;;;22.63;;
43835;SDS011;39345;43.964;25.340;2022-12-29T00:09:36;41.55;;;22.10;;
43835;SDS011;39345;43.964;25.340;2022-12-29T00:12:04;38.90;;;21.02;;
43835;SDS011;39345;43.964;25.340;2022-12-29T00:14:31;37.70;;;20.88;;
43835;SDS011;39345;43.964;25.340;2022-12-29T00:17:18;40.80;;;21.58;;
43835;SDS011;39345;43.964;25.340;2022-12-29T00:19:45;40.22;;;21.20;;
43835;SDS011;39345;43.964;25.340;2022-12-29T00:22:32;41.67;;;21.52;;
43835;SDS011;39345;43.964;25.340;2022-12-29T00:25:18;36.67;;;19.70;;
43835;SDS011;39345;43.964;25.340;2022-12-29T00:28:06;38.13;;;20.05;;
43835;SDS011;39345;43.964;25.340;2022-12-29T00:30:53;35.67;;;19.67;;
43835;SDS011;39345;43.964;25.340;2022-12-29T00:33:39;35.80;;;19.77;;
43835;SDS011;39345;43.964;25.340;2022-12-29T00:36:27;34.25;;;18.98;;
43835;SDS011;39345;43.964;25.340;2022-12-29T00:39:01;32.95;;;18.83;;
43835;SDS011;39345;43.964;25.340;2022-12-29T00:41:48;33.00;;;18.95;;
43835;SDS011;39345;43.964;25.340;2022-12-29T00:44:34;40.53;;;20.55;;
43835;SDS011;39345;43.964;25.340;2022-12-29T00:47:01;37.80;;;20.92;;
43835;SDS011;39345;43.964;25.340;2022-12-29T00:49:31;38.15;;;21.15;;
43835;SDS011;39345;43.964;25.340;2022-12-29T00:54:30;38.08;;;21.40;;
43835;SDS011;39345;43.964;25.340;2022-12-29T00:56:59;34.63;;;20.98;;
43835;SDS011;39345;43.964;25.340;2022-12-29T00:59:27;37.67;;;20.42;;
43835;SDS011;39345;43.964;25.340;2022-12-29T01:01:55;37.05;;;19.92;;
43835;SDS011;39345;43.964;25.340;2022-12-29T01:04:24;36.15;;;19.73;;
43835;SDS011;39345;43.964;25.340;2022-12-29T01:06:52;37.00;;;20.10;;
43835;SDS011;39345;43.964;25.340;2022-12-29T01:09:20;39.92;;;21.23;;
43835;SDS011;39345;43.964;25.340;2022-12-29T01:12:07;39.38;;;21.92;;
43835;SDS011;39345;43.964;25.340;2022-12-29T01:14:35;40.67;;;21.35;;
43835;SDS011;39345;43.964;25.340;2022-12-29T01:17:03;40.25;;;21.75;;
43835;SDS011;39345;43.964;25.340;2022-12-29T01:19:31;42.00;;;21.42;;
43835;SDS011;39345;43.964;25.340;2022-12-29T01:21:59;37.10;;;20.60;;
43835;SDS011;39345;43.964;25.340;2022-12-29T01:24:27;43.30;;;22.27;;
43835;SDS011;39345;43.964;25.340;2022-12-29T01:26:54;42.88;;;21.83;;
43835;SDS011;39345;43.964;25.340;2022-12-29T01:29:22;39.55;;;21.33;;
43835;SDS011;39345;43.964;25.340;2022-12-29T01:31:49;40.28;;;21.48;;
43835;SDS011;39345;43.964;25.340;2022-12-29T01:34:17;38.60;;;22.15;;
43835;SDS011;39345;43.964;25.340;2022-12-29T01:36:45;37.38;;;21.25;;
43835;SDS011;39345;43.964;25.340;2022-12-29T01:39:12;38.92;;;21.88;;
43835;SDS011;39345;43.964;25.340;2022-12-29T01:41:40;40.00;;;22.55;;
43835;SDS011;39345;43.964;25.340;2022-12-29T01:46:53;39.25;;;21.67;;
43835;SDS011;39345;43.964;25.340;2022-12-29T01:49:24;43.50;;;23.45;;
43835;SDS011;39345;43.964;25.340;2022-12-29T01:51:55;46.63;;;23.45;;
43835;SDS011;39345;43.964;25.340;2022-12-29T01:56:53;45.65;;;23.30;;
43835;SDS011;39345;43.964;25.340;2022-12-29T01:59:22;44.08;;;22.52;;
43835;SDS011;39345;43.964;25.340;2022-12-29T02:01:52;42.58;;;22.45;;
43835;SDS011;39345;43.964;25.340;2022-12-29T02:04:20;43.35;;;23.10;;
43835;SDS011;39345;43.964;25.340;2022-12-29T02:09:20;47.05;;;23.95;;
43835;SDS011;39345;43.964;25.340;2022-12-29T02:11:49;40.53;;;23.17;;
43835;SDS011;39345;43.964;25.340;2022-12-29T02:14:17;42.97;;;22.92;;
43835;SDS011;39345;43.964;25.340;2022-12-29T02:16:55;42.05;;;23.40;;
43835;SDS011;39345;43.964;25.340;2022-12-29T02:35:05;46.38;;;24.45;;
43835;SDS011;39345;43.964;25.340;2022-12-29T02:37:49;51.30;;;25.88;;
43835;SDS011;39345;43.964;25.340;2022-12-29T02:40:24;48.22;;;24.38;;
43835;SDS011;39345;43.964;25.340;2022-12-29T02:43:19;47.78;;;24.80;;
43835;SDS011;39345;43.964;25.340;2022-12-29T02:45:59;50.45;;;25.10;;
43835;SDS011;39345;43.964;25.340;2022-12-29T02:48:38;48.45;;;25.75;;
43835;SDS011;39345;43.964;25.340;2022-12-29T02:51:09;52.17;;;26.80;;
43835;SDS011;39345;43.964;25.340;2022-12-29T02:53:38;52.22;;;27.20;;
43835;SDS011;39345;43.964;25.340;2022-12-29T02:56:25;52.63;;;26.38;;
43835;SDS011;39345;43.964;25.340;2022-12-29T02:58:52;53.28;;;26.50;;
43835;SDS011;39345;43.964;25.340;2022-12-29T03:01:37;47.83;;;27.10;;
43835;SDS011;39345;43.964;25.340;2022-12-29T03:06:59;57.70;;;25.77;;
43835;SDS011;39345;43.964;25.340;2022-12-29T03:09:48;51.30;;;26.88;;
43835;SDS011;39345;43.964;25.340;2022-12-29T03:14:58;56.47;;;28.73;;
43835;SDS011;39345;43.964;25.340;2022-12-29T03:17:48;52.88;;;27.67;;
43835;SDS011;39345;43.964;25.340;2022-12-29T03:20:20;54.85;;;27.10;;
43835;SDS011;39345;43.964;25.340;2022-12-29T03:22:53;52.95;;;26.65;;
43835;SDS011;39345;43.964;25.340;2022-12-29T03:25:24;45.95;;;24.75;;
43835;SDS011;39345;43.964;25.340;2022-12-29T03:27:55;47.42;;;25.15;;
43835;SDS011;39345;43.964;25.340;2022-12-29T03:30:24;44.60;;;24.25;;
43835;SDS011;39345;43.964;25.340;2022-12-29T03:33:00;45.78;;;24.13;;
43835;SDS011;39345;43.964;25.340;2022-12-29T03:35:31;42.13;;;24.98;;
43835;SDS011;39345;43.964;25.340;2022-12-29T03:40:34;46.55;;;24.50;;
43835;SDS011;39345;43.964;25.340;2022-12-29T03:43:02;49.63;;;24.30;;
43835;SDS011;39345;43.964;25.340;2022-12-29T03:45:32;45.17;;;24.05;;
43835;SDS011;39345;43.964;25.340;2022-12-29T03:48:00;43.90;;;24.73;;
43835;SDS011;39345;43.964;25.340;2022-12-29T03:50:28;46.95;;;24.90;;
43835;SDS011;39345;43.964;25.340;2022-12-29T03:52:57;43.78;;;24.02;;
43835;SDS011;39345;43.964;25.340;2022-12-29T03:55:26;46.83;;;25.02;;
43835;SDS011;39345;43.964;25.340;2022-12-29T03:57:53;48.53;;;26.10;;
43835;SDS011;39345;43.964;25.340;2022-12-29T04:00:32;46.88;;;24.60;;
43835;SDS011;39345;43.964;25.340;2022-12-29T04:02:59;51.35;;;26.42;;
43835;SDS011;39345;43.964;25.340;2022-12-29T04:05:27;46.05;;;24.83;;
43835;SDS011;39345;43.964;25.340;2022-12-29T04:07:56;44.15;;;24.90;;
43835;SDS011;39345;43.964;25.340;2022-12-29T04:10:23;45.45;;;24.85;;
43835;SDS011;39345;43.964;25.340;2022-12-29T04:12:54;42.83;;;24.20;;
43835;SDS011;39345;43.964;25.340;2022-12-29T04:15:23;47.95;;;25.83;;
43835;SDS011;39345;43.964;25.340;2022-12-29T04:17:53;44.13;;;25.58;;
43835;SDS011;39345;43.964;25.340;2022-12-29T04:20:20;46.00;;;24.80;;
43835;SDS011;39345;43.964;25.340;2022-12-29T04:23:06;44.53;;;25.05;;
43835;SDS011;39345;43.964;25.340;2022-12-29T04:25:36;48.75;;;24.42;;
43835;SDS011;39345;43.964;25.340;2022-12-29T04:28:05;43.70;;;24.95;;
43835;SDS011;39345;43.964;25.340;2022-12-29T04:31:04;49.03;;;25.23;;
43835;SDS011;39345;43.964;25.340;2022-12-29T04:33:38;43.75;;;25.23;;
43835;SDS011;39345;43.964;25.340;2022-12-29T04:36:06;48.63;;;24.85;;
43835;SDS011;39345;43.964;25.340;2022-12-29T04:38:35;51.88;;;25.65;;
43835;SDS011;39345;43.964;25.340;2022-12-29T04:41:04;44.60;;;25.08;;
43835;SDS011;39345;43.964;25.340;2022-12-29T04:43:34;47.42;;;25.70;;
43835;SDS011;39345;43.964;25.340;2022-12-29T04:46:10;46.20;;;26.13;;
43835;SDS011;39345;43.964;25.340;2022-12-29T04:48:58;46.63;;;25.58;;
43835;SDS011;39345;43.964;25.340;2022-12-29T04:51:54;51.03;;;27.20;;
43835;SDS011;39345;43.964;25.340;2022-12-29T04:54:22;48.70;;;27.23;;
43835;SDS011;39345;43.964;25.340;2022-12-29T04:56:58;46.97;;;27.67;;
43835;SDS011;39345;43.964;25.340;2022-12-29T04:59:25;54.22;;;26.80;;
43835;SDS011;39345;43.964;25.340;2022-12-29T05:01:56;52.05;;;27.95;;
43835;SDS011;39345;43.964;25.340;2022-12-29T05:04:24;55.60;;;27.83;;
43835;SDS011;39345;43.964;25.340;2022-12-29T05:06:51;47.97;;;27.75;;
43835;SDS011;39345;43.964;25.340;2022-12-29T05:09:19;53.58;;;26.80;;
43835;SDS011;39345;43.964;25.340;2022-12-29T05:11:46;52.03;;;26.88;;
43835;SDS011;39345;43.964;25.340;2022-12-29T05:14:14;52.92;;;27.52;;
43835;SDS011;39345;43.964;25.340;2022-12-29T05:16:44;52.72;;;27.27;;
43835;SDS011;39345;43.964;25.340;2022-12-29T05:19:11;51.85;;;25.35;;
43835;SDS011;39345;43.964;25.340;2022-12-29T05:21:39;54.47;;;27.10;;
43835;SDS011;39345;43.964;25.340;2022-12-29T05:24:07;51.72;;;29.63;;
43835;SDS011;39345;43.964;25.340;2022-12-29T05:26:35;54.35;;;27.98;;
43835;SDS011;39345;43.964;25.340;2022-12-29T05:29:21;49.47;;;27.98;;
43835;SDS011;39345;43.964;25.340;2022-12-29T05:31:48;52.28;;;28.17;;
43835;SDS011;39345;43.964;25.340;2022-12-29T05:34:16;53.53;;;28.17;;
43835;SDS011;39345;43.964;25.340;2022-12-29T05:36:44;59.38;;;30.10;;
43835;SDS011;39345;43.964;25.340;2022-12-29T05:39:13;67.88;;;33.40;;
43835;SDS011;39345;43.964;25.340;2022-12-29T05:41:43;61.17;;;32.45;;
43835;SDS011;39345;43.964;25.340;2022-12-29T05:44:46;63.15;;;31.85;;
43835;SDS011;39345;43.964;25.340;2022-12-29T05:47:35;60.03;;;32.25;;
43835;SDS011;39345;43.964;25.340;2022-12-29T05:50:22;70.63;;;33.72;;
43835;SDS011;39345;43.964;25.340;2022-12-29T05:53:10;68.30;;;34.35;;
43835;SDS011;39345;43.964;25.340;2022-12-29T05:55:38;64.00;;;33.25;;
43835;SDS011;39345;43.964;25.340;2022-12-29T06:00:41;71.53;;;33.60;;
43835;SDS011;39345;43.964;25.340;2022-12-29T06:03:11;72.63;;;37.83;;
43835;SDS011;39345;43.964;25.340;2022-12-29T06:05:40;95.97;;;42.33;;
43835;SDS011;39345;43.964;25.340;2022-12-29T06:08:07;163.63;;;63.70;;
43835;SDS011;39345;43.964;25.340;2022-12-29T06:10:35;160.32;;;69.82;;
43835;SDS011;39345;43.964;25.340;2022-12-29T06:13:04;145.40;;;58.90;;
43835;SDS011;39345;43.964;25.340;2022-12-29T06:15:35;81.00;;;38.75;;
43835;SDS011;39345;43.964;25.340;2022-12-29T06:18:06;74.93;;;38.38;;
43835;SDS011;39345;43.964;25.340;2022-12-29T06:20:33;73.30;;;38.05;;
43835;SDS011;39345;43.964;25.340;2022-12-29T06:23:03;76.30;;;38.75;;
43835;SDS011;39345;43.964;25.340;2022-12-29T06:25:31;83.43;;;42.83;;
43835;SDS011;39345;43.964;25.340;2022-12-29T06:28:01;93.20;;;44.78;;
43835;SDS011;39345;43.964;25.340;2022-12-29T06:30:28;89.03;;;43.17;;
43835;SDS011;39345;43.964;25.340;2022-12-29T06:32:57;84.18;;;45.67;;
43835;SDS011;39345;43.964;25.340;2022-12-29T06:35:25;237.55;;;122.75;;
43835;SDS011;39345;43.964;25.340;2022-12-29T06:37:53;169.68;;;92.65;;
43835;SDS011;39345;43.964;25.340;2022-12-29T06:40:20;67.30;;;37.50;;
43835;SDS011;39345;43.964;25.340;2022-12-29T06:43:15;61.60;;;34.92;;
43835;SDS011;39345;43.964;25.340;2022-12-29T06:46:05;64.65;;;34.13;;
43835;SDS011;39345;43.964;25.340;2022-12-29T06:48:33;57.20;;;30.17;;
43835;SDS011;39345;43.964;25.340;2022-12-29T06:51:01;55.85;;;30.33;;
43835;SDS011;39345;43.964;25.340;2022-12-29T06:53:28;57.13;;;31.65;;
43835;SDS011;39345;43.964;25.340;2022-12-29T06:55:56;62.03;;;32.22;;
43835;SDS011;39345;43.964;25.340;2022-12-29T06:58:23;54.03;;;30.60;;
43835;SDS011;39345;43.964;25.340;2022-12-29T07:00:50;56.60;;;32.88;;
43835;SDS011;39345;43.964;25.340;2022-12-29T07:03:18;60.65;;;34.28;;
43835;SDS011;39345;43.964;25.340;2022-12-29T07:05:46;68.38;;;35.55;;
43835;SDS011;39345;43.964;25.340;2022-12-29T07:08:13;63.10;;;35.97;;
43835;SDS011;39345;43.964;25.340;2022-12-29T07:10:41;70.55;;;37.60;;
43835;SDS011;39345;43.964;25.340;2022-12-29T07:13:08;90.40;;;39.33;;
43835;SDS011;39345;43.964;25.340;2022-12-29T07:15:36;62.15;;;36.92;;
43835;SDS011;39345;43.964;25.340;2022-12-29T07:18:04;64.05;;;37.67;;
43835;SDS011;39345;43.964;25.340;2022-12-29T07:20:31;69.45;;;36.72;;
43835;SDS011;39345;43.964;25.340;2022-12-29T07:22:59;66.47;;;36.22;;
43835;SDS011;39345;43.964;25.340;2022-12-29T07:25:26;62.55;;;36.33;;
43835;SDS011;39345;43.964;25.340;2022-12-29T07:27:55;74.85;;;37.33;;
43835;SDS011;39345;43.964;25.340;2022-12-29T07:30:22;73.53;;;36.95;;
43835;SDS011;39345;43.964;25.340;2022-12-29T07:32:50;70.95;;;39.95;;
43835;SDS011;39345;43.964;25.340;2022-12-29T07:35:17;64.88;;;36.55;;
43835;SDS011;39345;43.964;25.340;2022-12-29T07:37:45;65.10;;;35.75;;
43835;SDS011;39345;43.964;25.340;2022-12-29T07:40:12;66.60;;;37.08;;
43835;SDS011;39345;43.964;25.340;2022-12-29T07:42:40;67.50;;;36.50;;
43835;SDS011;39345;43.964;25.340;2022-12-29T07:45:08;67.65;;;36.30;;
43835;SDS011;39345;43.964;25.340;2022-12-29T07:48:01;73.05;;;37.20;;
43835;SDS011;39345;43.964;25.340;2022-12-29T07:50:29;68.35;;;37.78;;
43835;SDS011;39345;43.964;25.340;2022-12-29T07:52:56;67.53;;;35.33;;
43835;SDS011;39345;43.964;25.340;2022-12-29T07:55:24;73.65;;;39.75;;
43835;SDS011;39345;43.964;25.340;2022-12-29T07:57:55;65.32;;;34.53;;
43835;SDS011;39345;43.964;25.340;2022-12-29T08:00:23;68.43;;;35.47;;
43835;SDS011;39345;43.964;25.340;2022-12-29T08:02:50;59.90;;;35.55;;
43835;SDS011;39345;43.964;25.340;2022-12-29T08:05:18;52.65;;;31.73;;
43835;SDS011;39345;43.964;25.340;2022-12-29T08:07:45;55.33;;;31.50;;
43835;SDS011;39345;43.964;25.340;2022-12-29T08:10:13;47.22;;;27.63;;
43835;SDS011;39345;43.964;25.340;2022-12-29T08:12:41;49.10;;;29.23;;
43835;SDS011;39345;43.964;25.340;2022-12-29T08:15:10;50.60;;;28.92;;
43835;SDS011;39345;43.964;25.340;2022-12-29T08:17:38;46.55;;;27.70;;
43835;SDS011;39345;43.964;25.340;2022-12-29T08:20:06;44.15;;;24.85;;
43835;SDS011;39345;43.964;25.340;2022-12-29T08:22:34;45.58;;;24.50;;
43835;SDS011;39345;43.964;25.340;2022-12-29T08:25:01;46.83;;;25.85;;
43835;SDS011;39345;43.964;25.340;2022-12-29T08:27:29;39.38;;;24.17;;
43835;SDS011;39345;43.964;25.340;2022-12-29T08:29:56;40.28;;;25.42;;
43835;SDS011;39345;43.964;25.340;2022-12-29T08:32:26;44.72;;;25.77;;
43835;SDS011;39345;43.964;25.340;2022-12-29T08:34:54;43.28;;;27.75;;
43835;SDS011;39345;43.964;25.340;2022-12-29T08:37:22;36.90;;;22.98;;
43835;SDS011;39345;43.964;25.340;2022-12-29T08:39:56;36.72;;;22.67;;
43835;SDS011;39345;43.964;25.340;2022-12-29T08:42:25;39.63;;;23.33;;
43835;SDS011;39345;43.964;25.340;2022-12-29T08:44:58;41.13;;;23.90;;
43835;SDS011;39345;43.964;25.340;2022-12-29T08:47:26;39.30;;;22.98;;
43835;SDS011;39345;43.964;25.340;2022-12-29T08:49:53;38.65;;;24.27;;
43835;SDS011;39345;43.964;25.340;2022-12-29T08:52:21;40.78;;;24.25;;
43835;SDS011;39345;43.964;25.340;2022-12-29T08:54:49;41.17;;;23.55;;
43835;SDS011;39345;43.964;25.340;2022-12-29T08:57:17;39.95;;;24.50;;
43835;SDS011;39345;43.964;25.340;2022-12-29T09:02:30;40.80;;;23.35;;
43835;SDS011;39345;43.964;25.340;2022-12-29T09:04:58;36.75;;;22.90;;
43835;SDS011;39345;43.964;25.340;2022-12-29T09:07:26;36.33;;;21.48;;
43835;SDS011;39345;43.964;25.340;2022-12-29T09:09:54;32.95;;;21.58;;
43835;SDS011;39345;43.964;25.340;2022-12-29T09:12:21;33.38;;;20.90;;
43835;SDS011;39345;43.964;25.340;2022-12-29T09:14:49;35.15;;;20.10;;
43835;SDS011;39345;43.964;25.340;2022-12-29T09:17:16;35.33;;;21.70;;
43835;SDS011;39345;43.964;25.340;2022-12-29T09:20:03;34.20;;;22.23;;
43835;SDS011;39345;43.964;25.340;2022-12-29T09:22:31;36.53;;;23.08;;
43835;SDS011;39345;43.964;25.340;2022-12-29T09:24:58;35.03;;;21.05;;
43835;SDS011;39345;43.964;25.340;2022-12-29T09:27:25;38.03;;;21.95;;
43835;SDS011;39345;43.964;25.340;2022-12-29T09:29:53;36.92;;;22.25;;
43835;SDS011;39345;43.964;25.340;2022-12-29T09:32:20;35.50;;;21.27;;
43835;SDS011;39345;43.964;25.340;2022-12-29T09:34:49;35.55;;;20.88;;
43835;SDS011;39345;43.964;25.340;2022-12-29T09:37:17;35.35;;;21.50;;
43835;SDS011;39345;43.964;25.340;2022-12-29T09:39:44;35.65;;;21.15;;
43835;SDS011;39345;43.964;25.340;2022-12-29T09:42:23;36.72;;;22.27;;
43835;SDS011;39345;43.964;25.340;2022-12-29T09:47:39;36.75;;;23.02;;
43835;SDS011;39345;43.964;25.340;2022-12-29T09:52:47;35.42;;;21.20;;
43835;SDS011;39345;43.964;25.340;2022-12-29T09:55:19;33.60;;;22.33;;
43835;SDS011;39345;43.964;25.340;2022-12-29T09:57:52;36.95;;;22.92;;
43835;SDS011;39345;43.964;25.340;2022-12-29T10:00:22;40.00;;;23.10;;
43835;SDS011;39345;43.964;25.340;2022-12-29T10:02:52;37.45;;;24.13;;
43835;SDS011;39345;43.964;25.340;2022-12-29T10:07:55;38.25;;;24.88;;
43835;SDS011;39345;43.964;25.340;2022-12-29T10:13:00;37.53;;;22.75;;
43835;SDS011;39345;43.964;25.340;2022-12-29T10:20:55;43.13;;;23.98;;
43835;SDS011;39345;43.964;25.340;2022-12-29T10:23:26;37.42;;;23.50;;
43835;SDS011;39345;43.964;25.340;2022-12-29T10:25:55;38.30;;;21.98;;
43835;SDS011;39345;43.964;25.340;2022-12-29T10:28:24;36.72;;;23.48;;
43835;SDS011;39345;43.964;25.340;2022-12-29T10:30:57;39.22;;;23.10;;
43835;SDS011;39345;43.964;25.340;2022-12-29T10:33:32;30.80;;;19.50;;
43835;SDS011;39345;43.964;25.340;2022-12-29T10:36:04;30.00;;;18.75;;
43835;SDS011;39345;43.964;25.340;2022-12-29T10:38:44;27.42;;;18.67;;
43835;SDS011;39345;43.964;25.340;2022-12-29T10:41:15;26.42;;;17.33;;
43835;SDS011;39345;43.964;25.340;2022-12-29T10:43:46;28.95;;;18.38;;
43835;SDS011;39345;43.964;25.340;2022-12-29T10:46:18;33.50;;;19.55;;
43835;SDS011;39345;43.964;25.340;2022-12-29T10:48:46;28.08;;;18.25;;
43835;SDS011;39345;43.964;25.340;2022-12-29T10:51:18;31.98;;;19.20;;
43835;SDS011;39345;43.964;25.340;2022-12-29T10:53:48;29.08;;;18.60;;
43835;SDS011;39345;43.964;25.340;2022-12-29T10:57:02;27.50;;;17.05;;
43835;SDS011;39345;43.964;25.340;2022-12-29T11:01:51;29.92;;;18.38;;
43835;SDS011;39345;43.964;25.340;2022-12-29T11:06:49;28.45;;;18.38;;
43835;SDS011;39345;43.964;25.340;2022-12-29T11:09:30;26.65;;;17.67;;
43835;SDS011;39345;43.964;25.340;2022-12-29T11:12:27;30.17;;;17.75;;
43835;SDS011;39345;43.964;25.340;2022-12-29T11:17:28;29.42;;;19.45;;
43835;SDS011;39345;43.964;25.340;2022-12-29T11:19:55;27.08;;;17.90;;
43835;SDS011;39345;43.964;25.340;2022-12-29T11:22:24;29.27;;;17.27;;
43835;SDS011;39345;43.964;25.340;2022-12-29T11:24:52;27.55;;;18.20;;
43835;SDS011;39345;43.964;25.340;2022-12-29T11:27:24;27.90;;;17.30;;
43835;SDS011;39345;43.964;25.340;2022-12-29T11:29:53;25.75;;;17.00;;
43835;SDS011;39345;43.964;25.340;2022-12-29T11:32:21;28.58;;;18.23;;
43835;SDS011;39345;43.964;25.340;2022-12-29T11:34:54;25.13;;;17.77;;
43835;SDS011;39345;43.964;25.340;2022-12-29T11:37:36;28.05;;;16.50;;
43835;SDS011;39345;43.964;25.340;2022-12-29T11:40:18;25.92;;;16.65;;
43835;SDS011;39345;43.964;25.340;2022-12-29T11:42:47;25.83;;;17.75;;
43835;SDS011;39345;43.964;25.340;2022-12-29T11:45:25;27.63;;;17.65;;
43835;SDS011;39345;43.964;25.340;2022-12-29T11:47:57;34.08;;;17.83;;
43835;SDS011;39345;43.964;25.340;2022-12-29T11:50:30;24.10;;;16.50;;
43835;SDS011;39345;43.964;25.340;2022-12-29T11:52:59;27.13;;;16.45;;
43835;SDS011;39345;43.964;25.340;2022-12-29T11:55:27;25.20;;;16.17;;
43835;SDS011;39345;43.964;25.340;2022-12-29T11:57:56;25.85;;;15.48;;
43835;SDS011;39345;43.964;25.340;2022-12-29T12:00:24;22.95;;;15.90;;
43835;SDS011;39345;43.964;25.340;2022-12-29T12:05:22;22.80;;;15.65;;
43835;SDS011;39345;43.964;25.340;2022-12-29T12:07:57;25.92;;;15.60;;
43835;SDS011;39345;43.964;25.340;2022-12-29T12:13:30;23.48;;;15.90;;
43835;SDS011;39345;43.964;25.340;2022-12-29T12:16:08;28.75;;;17.70;;
43835;SDS011;39345;43.964;25.340;2022-12-29T12:18:44;28.58;;;16.92;;
43835;SDS011;39345;43.964;25.340;2022-12-29T12:21:14;33.27;;;17.37;;
43835;SDS011;39345;43.964;25.340;2022-12-29T12:26:32;28.27;;;17.70;;
43835;SDS011;39345;43.964;25.340;2022-12-29T12:29:10;26.25;;;16.65;;
43835;SDS011;39345;43.964;25.340;2022-12-29T12:31:51;20.17;;;14.18;;
43835;SDS011;39345;43.964;25.340;2022-12-29T12:34:28;25.98;;;15.45;;
43835;SDS011;39345;43.964;25.340;2022-12-29T12:42:34;24.48;;;16.92;;
43835;SDS011;39345;43.964;25.340;2022-12-29T13:03:47;25.20;;;15.18;;
43835;SDS011;39345;43.964;25.340;2022-12-29T13:06:32;19.92;;;14.82;;
43835;SDS011;39345;43.964;25.340;2022-12-29T13:24:40;21.77;;;14.27;;
43835;SDS011;39345;43.964;25.340;2022-12-29T13:30:23;21.15;;;14.07;;
43835;SDS011;39345;43.964;25.340;2022-12-29T13:37:33;23.85;;;15.13;;
43835;SDS011;39345;43.964;25.340;2022-12-29T13:40:02;25.10;;;15.05;;
43835;SDS011;39345;43.964;25.340;2022-12-29T13:42:37;21.02;;;13.63;;
43835;SDS011;39345;43.964;25.340;2022-12-29T13:45:15;24.15;;;14.27;;
43835;SDS011;39345;43.964;25.340;2022-12-29T13:48:06;24.70;;;13.98;;
43835;SDS011;39345;43.964;25.340;2022-12-29T13:50:38;22.52;;;14.68;;
43835;SDS011;39345;43.964;25.340;2022-12-29T13:55:39;28.30;;;16.13;;
43835;SDS011;39345;43.964;25.340;2022-12-29T13:58:09;23.38;;;14.98;;
43835;SDS011;39345;43.964;25.340;2022-12-29T14:00:48;21.25;;;13.40;;
43835;SDS011;39345;43.964;25.340;2022-12-29T14:06:24;22.02;;;14.35;;
43835;SDS011;39345;43.964;25.340;2022-12-29T14:08:52;22.92;;;13.05;;
43835;SDS011;39345;43.964;25.340;2022-12-29T14:11:21;22.08;;;13.82;;
43835;SDS011;39345;43.964;25.340;2022-12-29T14:13:51;23.02;;;14.82;;
43835;SDS011;39345;43.964;25.340;2022-12-29T14:16:26;21.83;;;13.50;;
43835;SDS011;39345;43.964;25.340;2022-12-29T14:18:54;22.30;;;14.00;;
43835;SDS011;39345;43.964;25.340;2022-12-29T14:21:24;26.00;;;15.23;;
43835;SDS011;39345;43.964;25.340;2022-12-29T14:24:25;27.90;;;17.55;;
43835;SDS011;39345;43.964;25.340;2022-12-29T14:26:43;33.58;;;18.73;;
43835;SDS011;39345;43.964;25.340;2022-12-29T14:29:56;29.30;;;18.05;;
43835;SDS011;39345;43.964;25.340;2022-12-29T14:31:58;32.03;;;18.10;;
43835;SDS011;39345;43.964;25.340;2022-12-29T14:34:29;30.80;;;18.85;;
43835;SDS011;39345;43.964;25.340;2022-12-29T14:39:30;40.83;;;24.67;;
43835;SDS011;39345;43.964;25.340;2022-12-29T14:44:28;41.40;;;23.23;;
43835;SDS011;39345;43.964;25.340;2022-12-29T14:46:57;36.92;;;21.02;;
43835;SDS011;39345;43.964;25.340;2022-12-29T14:49:27;41.28;;;22.90;;
43835;SDS011;39345;43.964;25.340;2022-12-29T14:52:15;38.58;;;25.10;;
43835;SDS011;39345;43.964;25.340;2022-12-29T14:54:46;49.80;;;26.15;;
43835;SDS011;39345;43.964;25.340;2022-12-29T14:57:19;42.75;;;25.63;;
43835;SDS011;39345;43.964;25.340;2022-12-29T14:59:48;55.50;;;28.35;;
43835;SDS011;39345;43.964;25.340;2022-12-29T15:02:21;53.13;;;29.73;;
43835;SDS011;39345;43.964;25.340;2022-12-29T15:04:49;64.88;;;31.70;;
43835;SDS011;39345;43.964;25.340;2022-12-29T15:07:17;64.82;;;35.72;;
43835;SDS011;39345;43.964;25.340;2022-12-29T15:09:52;71.72;;;37.38;;
43835;SDS011;39345;43.964;25.340;2022-12-29T15:14:56;74.68;;;37.83;;
43835;SDS011;39345;43.964;25.340;2022-12-29T15:17:29;73.00;;;38.40;;
43835;SDS011;39345;43.964;25.340;2022-12-29T15:19:57;65.95;;;36.00;;
43835;SDS011;39345;43.964;25.340;2022-12-29T15:22:25;57.75;;;33.92;;
43835;SDS011;39345;43.964;25.340;2022-12-29T15:24:54;62.78;;;35.90;;
43835;SDS011;39345;43.964;25.340;2022-12-29T15:27:22;66.97;;;36.00;;
43835;SDS011;39345;43.964;25.340;2022-12-29T15:30:01;60.03;;;37.20;;
43835;SDS011;39345;43.964;25.340;2022-12-29T15:32:29;62.33;;;37.45;;
43835;SDS011;39345;43.964;25.340;2022-12-29T15:35:21;66.50;;;37.13;;
43835;SDS011;39345;43.964;25.340;2022-12-29T15:37:49;58.00;;;35.53;;
43835;SDS011;39345;43.964;25.340;2022-12-29T15:40:24;59.78;;;36.17;;
43835;SDS011;39345;43.964;25.340;2022-12-29T15:45:30;65.88;;;39.38;;
43835;SDS011;39345;43.964;25.340;2022-12-29T15:47:59;62.10;;;39.05;;
43835;SDS011;39345;43.964;25.340;2022-12-29T15:50:27;58.47;;;35.50;;
43835;SDS011;39345;43.964;25.340;2022-12-29T15:52:55;64.68;;;36.17;;
43835;SDS011;39345;43.964;25.340;2022-12-29T15:57:58;43.45;;;27.30;;
43835;SDS011;39345;43.964;25.340;2022-12-29T16:00:26;44.45;;;26.98;;
43835;SDS011;39345;43.964;25.340;2022-12-29T16:02:55;45.92;;;27.65;;
43835;SDS011;39345;43.964;25.340;2022-12-29T16:05:23;44.45;;;28.42;;
43835;SDS011;39345;43.964;25.340;2022-12-29T16:07:55;43.28;;;27.23;;
43835;SDS011;39345;43.964;25.340;2022-12-29T16:10:39;44.33;;;28.38;;
43835;SDS011;39345;43.964;25.340;2022-12-29T16:15:47;57.47;;;34.03;;
43835;SDS011;39345;43.964;25.340;2022-12-29T16:18:24;51.50;;;29.95;;
43835;SDS011;39345;43.964;25.340;2022-12-29T16:20:53;45.65;;;27.90;;
43835;SDS011;39345;43.964;25.340;2022-12-29T16:23:25;44.35;;;28.48;;
43835;SDS011;39345;43.964;25.340;2022-12-29T16:25:53;49.90;;;29.83;;
43835;SDS011;39345;43.964;25.340;2022-12-29T16:28:22;46.85;;;29.33;;
43835;SDS011;39345;43.964;25.340;2022-12-29T16:30:57;44.95;;;28.35;;
43835;SDS011;39345;43.964;25.340;2022-12-29T16:38:48;43.35;;;25.58;;
43835;SDS011;39345;43.964;25.340;2022-12-29T16:41:27;33.95;;;23.33;;
43835;SDS011;39345;43.964;25.340;2022-12-29T16:44:16;37.30;;;23.70;;
43835;SDS011;39345;43.964;25.340;2022-12-29T16:46:44;41.25;;;23.58;;
43835;SDS011;39345;43.964;25.340;2022-12-29T16:49:24;41.53;;;24.33;;
43835;SDS011;39345;43.964;25.340;2022-12-29T16:51:52;48.05;;;28.20;;
43835;SDS011;39345;43.964;25.340;2022-12-29T16:54:22;69.93;;;39.10;;
43835;SDS011;39345;43.964;25.340;2022-12-29T16:56:50;69.95;;;41.78;;
43835;SDS011;39345;43.964;25.340;2022-12-29T16:59:32;71.78;;;41.85;;
43835;SDS011;39345;43.964;25.340;2022-12-29T17:02:01;56.42;;;33.88;;